sensor_id;sensor_type;location;lat;lon;timestamp;temperature;humidity
13310;DHT22;6723;48.256;16.402;2022-07-23T00:00:20;26.60;81.00
13310;DHT22;6723;48.256;16.402;2022-07-23T00:02:46;26.50;80.80
13310;DHT22;6723;48.256;16.402;2022-07-23T00:05:11;26.50;81.10
13310;DHT22;6723;48.256;16.402;2022-07-23T00:07:38;26.40;81.00
13310;DHT22;6723;48.256;16.402;2022-07-23T00:10:04;26.40;81.10
13310;DHT22;6723;48.256;16.402;2022-07-23T00:12:30;26.40;81.70
13310;DHT22;6723;48.256;16.402;2022-07-23T00:14:56;26.40;81.70
13310;DHT22;6723;48.256;16.402;2022-07-23T00:17:22;26.30;82.20
13310;DHT22;6723;48.256;16.402;2022-07-23T00:19:47;26.30;82.40
13310;DHT22;6723;48.256;16.402;2022-07-23T00:22:13;26.20;82.70
13310;DHT22;6723;48.256;16.402;2022-07-23T00:24:39;26.20;83.00
13310;DHT22;6723;48.256;16.402;2022-07-23T00:27:05;26.20;83.10
13310;DHT22;6723;48.256;16.402;2022-07-23T00:29:31;26.20;83.20
13310;DHT22;6723;48.256;16.402;2022-07-23T00:31:57;26.20;84.00
13310;DHT22;6723;48.256;16.402;2022-07-23T00:34:23;26.20;84.80
13310;DHT22;6723;48.256;16.402;2022-07-23T00:36:49;26.20;85.00
13310;DHT22;6723;48.256;16.402;2022-07-23T00:39:15;26.10;85.30
13310;DHT22;6723;48.256;16.402;2022-07-23T00:41:41;26.10;85.80
13310;DHT22;6723;48.256;16.402;2022-07-23T00:44:18;26.00;86.10
13310;DHT22;6723;48.256;16.402;2022-07-23T00:46:52;26.10;85.90
13310;DHT22;6723;48.256;16.402;2022-07-23T00:49:23;26.10;86.30
13310;DHT22;6723;48.256;16.402;2022-07-23T00:51:50;26.10;86.70
13310;DHT22;6723;48.256;16.402;2022-07-23T00:54:17;26.00;86.70
13310;DHT22;6723;48.256;16.402;2022-07-23T00:56:44;26.00;87.00
13310;DHT22;6723;48.256;16.402;2022-07-23T00:59:11;25.90;86.60
13310;DHT22;6723;48.256;16.402;2022-07-23T01:01:37;25.90;87.20
13310;DHT22;6723;48.256;16.402;2022-07-23T01:04:03;25.80;88.00
13310;DHT22;6723;48.256;16.402;2022-07-23T01:06:30;25.90;88.80
13310;DHT22;6723;48.256;16.402;2022-07-23T01:08:56;25.80;89.20
13310;DHT22;6723;48.256;16.402;2022-07-23T01:11:23;25.80;88.90
13310;DHT22;6723;48.256;16.402;2022-07-23T01:13:49;25.80;89.20
13310;DHT22;6723;48.256;16.402;2022-07-23T01:16:15;25.70;89.90
13310;DHT22;6723;48.256;16.402;2022-07-23T01:18:41;25.70;90.30
13310;DHT22;6723;48.256;16.402;2022-07-23T01:21:06;25.70;90.60
13310;DHT22;6723;48.256;16.402;2022-07-23T01:23:34;25.70;90.90
13310;DHT22;6723;48.256;16.402;2022-07-23T01:26:00;25.60;91.30
13310;DHT22;6723;48.256;16.402;2022-07-23T01:28:26;25.60;91.70
13310;DHT22;6723;48.256;16.402;2022-07-23T01:30:52;25.60;91.80
13310;DHT22;6723;48.256;16.402;2022-07-23T01:33:17;25.60;91.80
13310;DHT22;6723;48.256;16.402;2022-07-23T01:35:43;25.60;91.80
13310;DHT22;6723;48.256;16.402;2022-07-23T01:38:09;25.70;92.10
13310;DHT22;6723;48.256;16.402;2022-07-23T01:40:35;25.70;92.20
13310;DHT22;6723;48.256;16.402;2022-07-23T01:43:00;25.70;92.60
13310;DHT22;6723;48.256;16.402;2022-07-23T01:45:26;25.60;92.50
13310;DHT22;6723;48.256;16.402;2022-07-23T01:47:52;25.50;92.30
13310;DHT22;6723;48.256;16.402;2022-07-23T01:50:18;25.60;91.20
13310;DHT22;6723;48.256;16.402;2022-07-23T01:52:43;25.60;90.90
13310;DHT22;6723;48.256;16.402;2022-07-23T01:55:09;25.70;90.50
13310;DHT22;6723;48.256;16.402;2022-07-23T01:57:35;25.70;90.50
13310;DHT22;6723;48.256;16.402;2022-07-23T02:00:01;25.70;90.50
13310;DHT22;6723;48.256;16.402;2022-07-23T02:02:27;25.80;90.60
13310;DHT22;6723;48.256;16.402;2022-07-23T02:04:52;25.80;90.80
13310;DHT22;6723;48.256;16.402;2022-07-23T02:07:18;25.80;91.00
13310;DHT22;6723;48.256;16.402;2022-07-23T02:09:44;25.80;91.20
13310;DHT22;6723;48.256;16.402;2022-07-23T02:12:09;25.80;91.30
13310;DHT22;6723;48.256;16.402;2022-07-23T02:14:36;25.80;91.40
13310;DHT22;6723;48.256;16.402;2022-07-23T02:17:01;25.90;91.30
13310;DHT22;6723;48.256;16.402;2022-07-23T02:19:27;25.90;91.10
13310;DHT22;6723;48.256;16.402;2022-07-23T02:21:53;25.90;91.30
13310;DHT22;6723;48.256;16.402;2022-07-23T02:24:20;25.90;91.50
13310;DHT22;6723;48.256;16.402;2022-07-23T02:26:46;25.90;91.50
13310;DHT22;6723;48.256;16.402;2022-07-23T02:29:12;25.90;91.50
13310;DHT22;6723;48.256;16.402;2022-07-23T02:31:38;25.90;91.50
13310;DHT22;6723;48.256;16.402;2022-07-23T02:34:04;25.90;91.50
13310;DHT22;6723;48.256;16.402;2022-07-23T02:36:30;25.90;91.60
13310;DHT22;6723;48.256;16.402;2022-07-23T02:38:55;25.90;91.90
13310;DHT22;6723;48.256;16.402;2022-07-23T02:41:21;25.90;92.00
13310;DHT22;6723;48.256;16.402;2022-07-23T02:43:47;25.90;92.10
13310;DHT22;6723;48.256;16.402;2022-07-23T02:46:12;25.90;92.10
13310;DHT22;6723;48.256;16.402;2022-07-23T02:48:38;25.90;92.30
13310;DHT22;6723;48.256;16.402;2022-07-23T02:51:04;25.90;92.20
13310;DHT22;6723;48.256;16.402;2022-07-23T02:53:30;25.90;92.20
13310;DHT22;6723;48.256;16.402;2022-07-23T02:55:56;25.90;92.10
13310;DHT22;6723;48.256;16.402;2022-07-23T02:58:21;25.80;91.80
13310;DHT22;6723;48.256;16.402;2022-07-23T03:00:47;25.80;92.00
13310;DHT22;6723;48.256;16.402;2022-07-23T03:03:13;25.80;92.30
13310;DHT22;6723;48.256;16.402;2022-07-23T03:05:39;25.80;92.10
13310;DHT22;6723;48.256;16.402;2022-07-23T03:08:04;25.80;92.50
13310;DHT22;6723;48.256;16.402;2022-07-23T03:10:30;25.80;92.30
13310;DHT22;6723;48.256;16.402;2022-07-23T03:12:56;25.80;92.40
13310;DHT22;6723;48.256;16.402;2022-07-23T03:15:22;25.80;92.70
13310;DHT22;6723;48.256;16.402;2022-07-23T03:17:48;25.80;92.70
13310;DHT22;6723;48.256;16.402;2022-07-23T03:20:13;25.70;92.70
13310;DHT22;6723;48.256;16.402;2022-07-23T03:22:39;25.70;93.00
13310;DHT22;6723;48.256;16.402;2022-07-23T03:25:05;25.70;93.10
13310;DHT22;6723;48.256;16.402;2022-07-23T03:27:31;25.70;93.20
13310;DHT22;6723;48.256;16.402;2022-07-23T03:29:59;25.70;93.60
13310;DHT22;6723;48.256;16.402;2022-07-23T03:32:25;25.70;93.80
13310;DHT22;6723;48.256;16.402;2022-07-23T03:34:52;25.60;93.80
13310;DHT22;6723;48.256;16.402;2022-07-23T03:37:18;25.70;94.10
13310;DHT22;6723;48.256;16.402;2022-07-23T03:39:44;25.70;94.30
13310;DHT22;6723;48.256;16.402;2022-07-23T03:42:10;25.70;94.10
13310;DHT22;6723;48.256;16.402;2022-07-23T03:44:36;25.70;94.10
13310;DHT22;6723;48.256;16.402;2022-07-23T03:47:03;25.60;94.20
13310;DHT22;6723;48.256;16.402;2022-07-23T03:49:29;25.70;94.30
13310;DHT22;6723;48.256;16.402;2022-07-23T03:51:55;25.70;94.30
13310;DHT22;6723;48.256;16.402;2022-07-23T03:54:21;25.70;94.30
13310;DHT22;6723;48.256;16.402;2022-07-23T03:56:47;25.70;94.20
13310;DHT22;6723;48.256;16.402;2022-07-23T03:59:12;25.70;94.30
13310;DHT22;6723;48.256;16.402;2022-07-23T04:01:38;25.70;94.20
13310;DHT22;6723;48.256;16.402;2022-07-23T04:04:04;25.80;94.20
13310;DHT22;6723;48.256;16.402;2022-07-23T04:06:30;25.80;94.30
13310;DHT22;6723;48.256;16.402;2022-07-23T04:08:56;25.80;94.30
13310;DHT22;6723;48.256;16.402;2022-07-23T04:11:21;25.70;94.30
13310;DHT22;6723;48.256;16.402;2022-07-23T04:13:47;25.70;94.30
13310;DHT22;6723;48.256;16.402;2022-07-23T04:16:13;25.80;94.40
13310;DHT22;6723;48.256;16.402;2022-07-23T04:18:39;25.80;94.40
13310;DHT22;6723;48.256;16.402;2022-07-23T04:21:05;25.80;94.10
13310;DHT22;6723;48.256;16.402;2022-07-23T04:23:31;25.90;94.30
13310;DHT22;6723;48.256;16.402;2022-07-23T04:25:56;26.00;94.30
13310;DHT22;6723;48.256;16.402;2022-07-23T04:28:22;26.00;94.00
13310;DHT22;6723;48.256;16.402;2022-07-23T04:30:48;26.10;94.00
13310;DHT22;6723;48.256;16.402;2022-07-23T04:33:14;26.10;93.80
13310;DHT22;6723;48.256;16.402;2022-07-23T04:35:40;26.20;93.80
13310;DHT22;6723;48.256;16.402;2022-07-23T04:38:05;26.30;93.60
13310;DHT22;6723;48.256;16.402;2022-07-23T04:40:31;26.40;93.50
13310;DHT22;6723;48.256;16.402;2022-07-23T04:42:57;26.50;93.00
13310;DHT22;6723;48.256;16.402;2022-07-23T04:45:23;26.60;92.90
13310;DHT22;6723;48.256;16.402;2022-07-23T04:47:51;26.60;92.80
13310;DHT22;6723;48.256;16.402;2022-07-23T04:50:16;26.70;92.70
13310;DHT22;6723;48.256;16.402;2022-07-23T04:52:47;26.90;92.60
13310;DHT22;6723;48.256;16.402;2022-07-23T04:55:14;27.00;92.50
13310;DHT22;6723;48.256;16.402;2022-07-23T04:57:40;27.10;92.20
13310;DHT22;6723;48.256;16.402;2022-07-23T05:00:07;27.10;92.10
13310;DHT22;6723;48.256;16.402;2022-07-23T05:02:33;27.10;91.90
13310;DHT22;6723;48.256;16.402;2022-07-23T05:04:59;27.10;91.90
13310;DHT22;6723;48.256;16.402;2022-07-23T05:07:25;27.00;91.90
13310;DHT22;6723;48.256;16.402;2022-07-23T05:09:52;26.90;92.10
13310;DHT22;6723;48.256;16.402;2022-07-23T05:12:18;26.80;91.60
13310;DHT22;6723;48.256;16.402;2022-07-23T05:14:43;26.70;91.90
13310;DHT22;6723;48.256;16.402;2022-07-23T05:17:09;26.70;92.40
13310;DHT22;6723;48.256;16.402;2022-07-23T05:19:35;26.70;92.60
13310;DHT22;6723;48.256;16.402;2022-07-23T05:22:02;26.80;92.10
13310;DHT22;6723;48.256;16.402;2022-07-23T05:24:28;27.00;91.90
13310;DHT22;6723;48.256;16.402;2022-07-23T05:27:01;27.00;91.30
13310;DHT22;6723;48.256;16.402;2022-07-23T05:29:27;27.20;91.10
13310;DHT22;6723;48.256;16.402;2022-07-23T05:31:53;27.40;91.10
13310;DHT22;6723;48.256;16.402;2022-07-23T05:34:19;27.50;90.60
13310;DHT22;6723;48.256;16.402;2022-07-23T05:36:44;27.60;90.40
13310;DHT22;6723;48.256;16.402;2022-07-23T05:39:10;27.80;90.10
13310;DHT22;6723;48.256;16.402;2022-07-23T05:41:36;28.00;90.10
13310;DHT22;6723;48.256;16.402;2022-07-23T05:44:02;28.10;89.10
13310;DHT22;6723;48.256;16.402;2022-07-23T05:46:28;28.40;88.90
13310;DHT22;6723;48.256;16.402;2022-07-23T05:49:01;28.60;88.20
13310;DHT22;6723;48.256;16.402;2022-07-23T05:51:27;28.90;86.00
13310;DHT22;6723;48.256;16.402;2022-07-23T05:53:53;29.10;85.50
13310;DHT22;6723;48.256;16.402;2022-07-23T05:56:19;29.30;84.10
13310;DHT22;6723;48.256;16.402;2022-07-23T05:58:45;29.20;81.40
13310;DHT22;6723;48.256;16.402;2022-07-23T06:04:03;29.20;81.60
13310;DHT22;6723;48.256;16.402;2022-07-23T06:06:29;29.30;81.70
13310;DHT22;6723;48.256;16.402;2022-07-23T06:08:55;29.50;81.20
13310;DHT22;6723;48.256;16.402;2022-07-23T06:11:23;29.80;80.70
13310;DHT22;6723;48.256;16.402;2022-07-23T06:13:48;29.90;80.80
13310;DHT22;6723;48.256;16.402;2022-07-23T06:16:14;29.90;80.50
13310;DHT22;6723;48.256;16.402;2022-07-23T06:18:40;29.90;80.40
13310;DHT22;6723;48.256;16.402;2022-07-23T06:21:05;29.90;79.10
13310;DHT22;6723;48.256;16.402;2022-07-23T06:23:31;29.90;79.10
13310;DHT22;6723;48.256;16.402;2022-07-23T06:25:57;29.90;78.80
13310;DHT22;6723;48.256;16.402;2022-07-23T06:42:27;30.40;79.20
13310;DHT22;6723;48.256;16.402;2022-07-23T06:44:53;29.90;80.70
13310;DHT22;6723;48.256;16.402;2022-07-23T06:47:19;30.10;80.80
13310;DHT22;6723;48.256;16.402;2022-07-23T07:17:09;31.70;72.70
13310;DHT22;6723;48.256;16.402;2022-07-23T07:19:36;32.20;71.20
13310;DHT22;6723;48.256;16.402;2022-07-23T07:22:02;32.60;69.90
13310;DHT22;6723;48.256;16.402;2022-07-23T07:28:12;32.70;65.80
13310;DHT22;6723;48.256;16.402;2022-07-23T07:30:38;32.80;66.10
13310;DHT22;6723;48.256;16.402;2022-07-23T07:33:04;33.30;64.70
13310;DHT22;6723;48.256;16.402;2022-07-23T07:35:30;33.90;62.90
13310;DHT22;6723;48.256;16.402;2022-07-23T08:03:57;37.00;53.90
13310;DHT22;6723;48.256;16.402;2022-07-23T08:10:17;37.70;52.80
13310;DHT22;6723;48.256;16.402;2022-07-23T08:19:46;37.40;51.80
13310;DHT22;6723;48.256;16.402;2022-07-23T08:22:12;37.90;51.70
13310;DHT22;6723;48.256;16.402;2022-07-23T08:24:38;39.00;50.20
13310;DHT22;6723;48.256;16.402;2022-07-23T08:27:04;38.70;49.90
13310;DHT22;6723;48.256;16.402;2022-07-23T08:29:29;38.80;49.60
13310;DHT22;6723;48.256;16.402;2022-07-23T08:31:55;39.50;49.10
13310;DHT22;6723;48.256;16.402;2022-07-23T08:34:21;39.20;48.50
13310;DHT22;6723;48.256;16.402;2022-07-23T08:36:46;39.10;48.60
13310;DHT22;6723;48.256;16.402;2022-07-23T08:39:12;40.00;48.20
13310;DHT22;6723;48.256;16.402;2022-07-23T08:41:39;39.70;47.50
13310;DHT22;6723;48.256;16.402;2022-07-23T08:44:07;39.90;46.80
13310;DHT22;6723;48.256;16.402;2022-07-23T08:46:35;40.40;47.30
13310;DHT22;6723;48.256;16.402;2022-07-23T08:49:02;40.00;46.30
13310;DHT22;6723;48.256;16.402;2022-07-23T08:51:28;40.00;46.30
13310;DHT22;6723;48.256;16.402;2022-07-23T08:53:56;40.00;46.30
13310;DHT22;6723;48.256;16.402;2022-07-23T08:56:22;39.60;46.80
13310;DHT22;6723;48.256;16.402;2022-07-23T08:58:48;40.50;46.60
13310;DHT22;6723;48.256;16.402;2022-07-23T09:01:14;39.80;47.20
13310;DHT22;6723;48.256;16.402;2022-07-23T09:03:40;39.70;46.30
13310;DHT22;6723;48.256;16.402;2022-07-23T09:06:06;39.90;47.00
13310;DHT22;6723;48.256;16.402;2022-07-23T09:11:03;40.60;45.70
13310;DHT22;6723;48.256;16.402;2022-07-23T09:13:41;41.00;44.90
13310;DHT22;6723;48.256;16.402;2022-07-23T09:21:28;39.70;46.90
13310;DHT22;6723;48.256;16.402;2022-07-23T09:29:22;39.80;46.90
13310;DHT22;6723;48.256;16.402;2022-07-23T09:31:54;39.90;46.70
13310;DHT22;6723;48.256;16.402;2022-07-23T09:34:27;39.30;47.30
13310;DHT22;6723;48.256;16.402;2022-07-23T09:36:58;40.00;46.70
13310;DHT22;6723;48.256;16.402;2022-07-23T09:39:34;39.80;46.60
13310;DHT22;6723;48.256;16.402;2022-07-23T09:42:32;38.80;47.80
13310;DHT22;6723;48.256;16.402;2022-07-23T09:44:59;38.50;48.30
13310;DHT22;6723;48.256;16.402;2022-07-23T09:47:28;38.50;48.90
13310;DHT22;6723;48.256;16.402;2022-07-23T09:50:04;38.90;48.80
13310;DHT22;6723;48.256;16.402;2022-07-23T09:55:08;38.40;49.30
13310;DHT22;6723;48.256;16.402;2022-07-23T09:57:35;38.40;49.60
13310;DHT22;6723;48.256;16.402;2022-07-23T10:00:05;38.30;49.20
13310;DHT22;6723;48.256;16.402;2022-07-23T10:02:33;38.70;49.10
13310;DHT22;6723;48.256;16.402;2022-07-23T10:05:00;38.40;49.50
13310;DHT22;6723;48.256;16.402;2022-07-23T10:07:27;38.30;49.50
13310;DHT22;6723;48.256;16.402;2022-07-23T10:09:56;39.10;49.10
13310;DHT22;6723;48.256;16.402;2022-07-23T10:12:23;38.50;48.90
13310;DHT22;6723;48.256;16.402;2022-07-23T10:14:50;38.60;48.90
13310;DHT22;6723;48.256;16.402;2022-07-23T10:17:16;38.50;48.70
13310;DHT22;6723;48.256;16.402;2022-07-23T10:19:43;39.30;48.20
13310;DHT22;6723;48.256;16.402;2022-07-23T10:22:11;40.00;48.10
13310;DHT22;6723;48.256;16.402;2022-07-23T10:30:51;40.90;45.20
13310;DHT22;6723;48.256;16.402;2022-07-23T10:33:44;40.90;45.50
13310;DHT22;6723;48.256;16.402;2022-07-23T10:39:24;40.10;45.90
13310;DHT22;6723;48.256;16.402;2022-07-23T10:41:51;40.10;46.40
13310;DHT22;6723;48.256;16.402;2022-07-23T10:44:20;39.50;46.30
13310;DHT22;6723;48.256;16.402;2022-07-23T10:46:59;39.00;46.50
13310;DHT22;6723;48.256;16.402;2022-07-23T10:49:40;39.00;47.10
13310;DHT22;6723;48.256;16.402;2022-07-23T10:52:23;39.20;46.90
13310;DHT22;6723;48.256;16.402;2022-07-23T10:54:56;38.80;47.10
13310;DHT22;6723;48.256;16.402;2022-07-23T10:57:49;38.30;47.50
13310;DHT22;6723;48.256;16.402;2022-07-23T11:00:20;37.90;47.60
13310;DHT22;6723;48.256;16.402;2022-07-23T11:02:47;38.30;48.00
13310;DHT22;6723;48.256;16.402;2022-07-23T11:05:16;38.20;48.00
13310;DHT22;6723;48.256;16.402;2022-07-23T11:10:40;37.90;49.50
13310;DHT22;6723;48.256;16.402;2022-07-23T11:16:16;38.70;49.10
13310;DHT22;6723;48.256;16.402;2022-07-23T11:26:53;37.30;51.40
13310;DHT22;6723;48.256;16.402;2022-07-23T11:34:43;38.00;51.10
13310;DHT22;6723;48.256;16.402;2022-07-23T11:37:26;37.80;51.20
13310;DHT22;6723;48.256;16.402;2022-07-23T11:39:55;38.00;51.60
13310;DHT22;6723;48.256;16.402;2022-07-23T11:45:38;38.40;51.10
13310;DHT22;6723;48.256;16.402;2022-07-23T11:48:07;38.90;50.20
13310;DHT22;6723;48.256;16.402;2022-07-23T11:50:34;38.80;50.30
13310;DHT22;6723;48.256;16.402;2022-07-23T11:53:00;39.00;50.40
13310;DHT22;6723;48.256;16.402;2022-07-23T11:55:26;39.30;50.50
13310;DHT22;6723;48.256;16.402;2022-07-23T11:57:54;39.60;50.10
13310;DHT22;6723;48.256;16.402;2022-07-23T12:00:23;39.50;50.20
13310;DHT22;6723;48.256;16.402;2022-07-23T12:02:52;39.20;50.30
13310;DHT22;6723;48.256;16.402;2022-07-23T12:05:21;39.00;50.70
13310;DHT22;6723;48.256;16.402;2022-07-23T12:07:52;39.40;50.90
13310;DHT22;6723;48.256;16.402;2022-07-23T12:10:42;39.40;50.80
13310;DHT22;6723;48.256;16.402;2022-07-23T12:13:14;38.90;49.90
13310;DHT22;6723;48.256;16.402;2022-07-23T12:15:51;38.80;50.10
13310;DHT22;6723;48.256;16.402;2022-07-23T12:18:23;38.40;51.00
13310;DHT22;6723;48.256;16.402;2022-07-23T12:21:03;37.80;51.30
13310;DHT22;6723;48.256;16.402;2022-07-23T12:23:29;37.30;51.50
13310;DHT22;6723;48.256;16.402;2022-07-23T12:25:54;36.60;52.10
13310;DHT22;6723;48.256;16.402;2022-07-23T12:28:33;36.30;53.10
13310;DHT22;6723;48.256;16.402;2022-07-23T12:30:59;36.20;53.60
13310;DHT22;6723;48.256;16.402;2022-07-23T12:33:39;35.90;53.70
13310;DHT22;6723;48.256;16.402;2022-07-23T12:36:08;35.80;54.10
13310;DHT22;6723;48.256;16.402;2022-07-23T12:38:48;35.80;53.80
13310;DHT22;6723;48.256;16.402;2022-07-23T12:41:15;35.60;53.60
13310;DHT22;6723;48.256;16.402;2022-07-23T12:43:44;35.80;53.70
13310;DHT22;6723;48.256;16.402;2022-07-23T12:46:11;35.50;53.60
13310;DHT22;6723;48.256;16.402;2022-07-23T12:57:44;34.30;54.80
13310;DHT22;6723;48.256;16.402;2022-07-23T13:00:09;34.00;55.70
13310;DHT22;6723;48.256;16.402;2022-07-23T13:02:46;33.70;56.50
13310;DHT22;6723;48.256;16.402;2022-07-23T13:05:12;33.50;56.80
13310;DHT22;6723;48.256;16.402;2022-07-23T13:10:28;33.20;56.50
13310;DHT22;6723;48.256;16.402;2022-07-23T13:12:54;33.20;57.00
13310;DHT22;6723;48.256;16.402;2022-07-23T13:15:19;33.10;56.80
13310;DHT22;6723;48.256;16.402;2022-07-23T13:17:45;33.20;56.70
13310;DHT22;6723;48.256;16.402;2022-07-23T13:20:13;33.20;56.20
13310;DHT22;6723;48.256;16.402;2022-07-23T13:22:39;33.40;55.90
13310;DHT22;6723;48.256;16.402;2022-07-23T13:25:05;33.40;54.70
13310;DHT22;6723;48.256;16.402;2022-07-23T13:27:31;33.40;54.50
13310;DHT22;6723;48.256;16.402;2022-07-23T13:29:57;33.50;53.50
13310;DHT22;6723;48.256;16.402;2022-07-23T13:32:23;33.50;53.10
13310;DHT22;6723;48.256;16.402;2022-07-23T13:34:49;33.50;52.70
13310;DHT22;6723;48.256;16.402;2022-07-23T13:37:14;33.60;52.10
13310;DHT22;6723;48.256;16.402;2022-07-23T13:39:40;33.60;51.60
13310;DHT22;6723;48.256;16.402;2022-07-23T13:42:06;33.70;51.70
13310;DHT22;6723;48.256;16.402;2022-07-23T13:44:32;33.90;50.90
13310;DHT22;6723;48.256;16.402;2022-07-23T13:46:57;34.10;50.10
13310;DHT22;6723;48.256;16.402;2022-07-23T13:49:23;34.20;49.60
13310;DHT22;6723;48.256;16.402;2022-07-23T13:51:49;34.20;49.10
13310;DHT22;6723;48.256;16.402;2022-07-23T13:54:14;34.30;49.30
13310;DHT22;6723;48.256;16.402;2022-07-23T13:56:41;34.50;49.50
13310;DHT22;6723;48.256;16.402;2022-07-23T13:59:07;34.40;48.60
13310;DHT22;6723;48.256;16.402;2022-07-23T14:01:33;34.30;48.60
13310;DHT22;6723;48.256;16.402;2022-07-23T14:03:59;34.10;48.80
13310;DHT22;6723;48.256;16.402;2022-07-23T14:06:25;34.40;49.60
13310;DHT22;6723;48.256;16.402;2022-07-23T14:08:51;34.40;49.10
13310;DHT22;6723;48.256;16.402;2022-07-23T14:11:16;34.60;49.10
13310;DHT22;6723;48.256;16.402;2022-07-23T14:13:42;34.50;48.60
13310;DHT22;6723;48.256;16.402;2022-07-23T14:16:08;34.40;49.00
13310;DHT22;6723;48.256;16.402;2022-07-23T14:18:44;34.40;48.50
13310;DHT22;6723;48.256;16.402;2022-07-23T14:21:10;34.30;48.90
13310;DHT22;6723;48.256;16.402;2022-07-23T14:23:35;34.10;48.60
13310;DHT22;6723;48.256;16.402;2022-07-23T14:26:02;34.00;49.10
13310;DHT22;6723;48.256;16.402;2022-07-23T14:28:29;33.90;48.70
13310;DHT22;6723;48.256;16.402;2022-07-23T14:30:54;33.80;49.20
13310;DHT22;6723;48.256;16.402;2022-07-23T14:33:42;33.80;49.10
13310;DHT22;6723;48.256;16.402;2022-07-23T14:36:08;33.80;49.10
13310;DHT22;6723;48.256;16.402;2022-07-23T14:38:34;33.80;48.70
13310;DHT22;6723;48.256;16.402;2022-07-23T14:40:59;34.00;49.10
13310;DHT22;6723;48.256;16.402;2022-07-23T14:43:25;34.00;48.20
13310;DHT22;6723;48.256;16.402;2022-07-23T14:45:51;34.00;47.80
13310;DHT22;6723;48.256;16.402;2022-07-23T14:48:16;34.10;47.10
13310;DHT22;6723;48.256;16.402;2022-07-23T14:50:42;34.10;47.10
13310;DHT22;6723;48.256;16.402;2022-07-23T14:53:08;34.10;47.30
13310;DHT22;6723;48.256;16.402;2022-07-23T14:55:34;34.20;47.90
13310;DHT22;6723;48.256;16.402;2022-07-23T14:58:00;34.50;47.40
13310;DHT22;6723;48.256;16.402;2022-07-23T15:00:26;34.50;47.30
13310;DHT22;6723;48.256;16.402;2022-07-23T15:02:52;34.40;47.40
13310;DHT22;6723;48.256;16.402;2022-07-23T15:05:19;34.60;47.60
13310;DHT22;6723;48.256;16.402;2022-07-23T15:07:45;34.60;47.40
13310;DHT22;6723;48.256;16.402;2022-07-23T15:10:11;34.60;47.80
13310;DHT22;6723;48.256;16.402;2022-07-23T15:12:37;34.70;47.80
13310;DHT22;6723;48.256;16.402;2022-07-23T15:15:04;34.60;47.90
13310;DHT22;6723;48.256;16.402;2022-07-23T15:17:30;34.50;48.10
13310;DHT22;6723;48.256;16.402;2022-07-23T15:19:55;34.40;48.60
13310;DHT22;6723;48.256;16.402;2022-07-23T15:22:21;34.30;48.70
13310;DHT22;6723;48.256;16.402;2022-07-23T15:24:47;34.50;48.80
13310;DHT22;6723;48.256;16.402;2022-07-23T15:27:13;34.40;49.10
13310;DHT22;6723;48.256;16.402;2022-07-23T15:29:39;34.50;49.50
13310;DHT22;6723;48.256;16.402;2022-07-23T15:32:05;34.40;49.10
13310;DHT22;6723;48.256;16.402;2022-07-23T15:34:31;34.40;49.10
13310;DHT22;6723;48.256;16.402;2022-07-23T15:37:00;34.50;48.90
13310;DHT22;6723;48.256;16.402;2022-07-23T15:39:26;34.30;49.10
13310;DHT22;6723;48.256;16.402;2022-07-23T15:41:52;34.20;48.90
13310;DHT22;6723;48.256;16.402;2022-07-23T15:44:18;34.30;49.20
13310;DHT22;6723;48.256;16.402;2022-07-23T15:46:44;34.10;49.20
13310;DHT22;6723;48.256;16.402;2022-07-23T15:49:10;34.10;49.60
13310;DHT22;6723;48.256;16.402;2022-07-23T15:51:38;34.10;50.00
13310;DHT22;6723;48.256;16.402;2022-07-23T15:54:04;34.00;50.30
13310;DHT22;6723;48.256;16.402;2022-07-23T15:56:30;34.10;50.50
13310;DHT22;6723;48.256;16.402;2022-07-23T15:58:56;34.10;50.70
13310;DHT22;6723;48.256;16.402;2022-07-23T16:01:22;34.10;50.70
13310;DHT22;6723;48.256;16.402;2022-07-23T16:03:49;34.00;50.80
13310;DHT22;6723;48.256;16.402;2022-07-23T16:06:14;33.90;51.00
13310;DHT22;6723;48.256;16.402;2022-07-23T16:08:40;33.90;51.00
13310;DHT22;6723;48.256;16.402;2022-07-23T16:11:06;34.00;51.40
13310;DHT22;6723;48.256;16.402;2022-07-23T16:13:32;34.00;51.90
13310;DHT22;6723;48.256;16.402;2022-07-23T16:15:58;34.00;51.60
13310;DHT22;6723;48.256;16.402;2022-07-23T16:18:24;33.90;51.60
13310;DHT22;6723;48.256;16.402;2022-07-23T16:20:52;33.90;51.50
13310;DHT22;6723;48.256;16.402;2022-07-23T16:23:18;33.90;51.70
13310;DHT22;6723;48.256;16.402;2022-07-23T16:25:44;33.70;51.40
13310;DHT22;6723;48.256;16.402;2022-07-23T16:28:10;33.60;52.10
13310;DHT22;6723;48.256;16.402;2022-07-23T16:30:38;33.70;52.30
13310;DHT22;6723;48.256;16.402;2022-07-23T16:33:05;33.70;52.50
13310;DHT22;6723;48.256;16.402;2022-07-23T16:35:31;33.70;52.80
13310;DHT22;6723;48.256;16.402;2022-07-23T16:37:56;33.80;52.80
13310;DHT22;6723;48.256;16.402;2022-07-23T16:40:27;33.90;53.10
13310;DHT22;6723;48.256;16.402;2022-07-23T16:42:53;34.00;53.10
13310;DHT22;6723;48.256;16.402;2022-07-23T16:45:18;34.00;52.80
13310;DHT22;6723;48.256;16.402;2022-07-23T16:47:47;34.00;52.70
13310;DHT22;6723;48.256;16.402;2022-07-23T16:50:13;33.80;52.70
13310;DHT22;6723;48.256;16.402;2022-07-23T16:52:39;33.70;52.50
13310;DHT22;6723;48.256;16.402;2022-07-23T16:55:06;33.60;53.10
13310;DHT22;6723;48.256;16.402;2022-07-23T16:57:32;33.50;52.90
13310;DHT22;6723;48.256;16.402;2022-07-23T16:59:57;33.30;52.50
13310;DHT22;6723;48.256;16.402;2022-07-23T17:02:23;33.20;52.80
13310;DHT22;6723;48.256;16.402;2022-07-23T17:04:49;33.20;53.10
13310;DHT22;6723;48.256;16.402;2022-07-23T17:07:16;33.00;52.80
13310;DHT22;6723;48.256;16.402;2022-07-23T17:09:42;33.00;53.20
13310;DHT22;6723;48.256;16.402;2022-07-23T17:12:08;32.80;53.10
13310;DHT22;6723;48.256;16.402;2022-07-23T17:14:34;32.80;53.30
13310;DHT22;6723;48.256;16.402;2022-07-23T17:17:00;32.60;53.50
13310;DHT22;6723;48.256;16.402;2022-07-23T17:19:26;32.50;53.80
13310;DHT22;6723;48.256;16.402;2022-07-23T17:21:52;32.30;53.90
13310;DHT22;6723;48.256;16.402;2022-07-23T17:24:19;32.10;54.40
13310;DHT22;6723;48.256;16.402;2022-07-23T17:26:45;32.00;54.80
13310;DHT22;6723;48.256;16.402;2022-07-23T17:29:11;31.80;55.20
13310;DHT22;6723;48.256;16.402;2022-07-23T17:31:37;31.70;55.70
13310;DHT22;6723;48.256;16.402;2022-07-23T17:34:03;31.50;56.20
13310;DHT22;6723;48.256;16.402;2022-07-23T17:36:29;31.20;56.70
13310;DHT22;6723;48.256;16.402;2022-07-23T17:38:55;31.20;57.20
13310;DHT22;6723;48.256;16.402;2022-07-23T17:41:21;31.00;57.60
13310;DHT22;6723;48.256;16.402;2022-07-23T17:43:46;31.00;57.90
13310;DHT22;6723;48.256;16.402;2022-07-23T17:46:12;30.90;58.10
13310;DHT22;6723;48.256;16.402;2022-07-23T17:48:38;30.90;58.30
13310;DHT22;6723;48.256;16.402;2022-07-23T17:51:08;30.80;58.60
13310;DHT22;6723;48.256;16.402;2022-07-23T17:53:34;30.70;58.80